Time;durP1;ratioP1;P1;durP2;ratioP2;P2;SDS_P1;SDS_P2;PMS_P1;PMS_P2;Temp;Humidity;BMP_temperature;BMP_pressure;BME280_temperature;BME280_humidity;BME280_pressure;Samples;Min_cycle;Max_cycle;Signal;HPM_P1;HPM_P2
2023/01/20 00:02:02;;;;;;;31.77;15.97;;;;;;;-0.40;100.00;100907.38;5024553;28;20691;-73
2023/01/20 00:04:27;;;;;;;31.43;15.77;;;;;;;-0.40;100.00;100904.88;5027841;28;20690;-73
2023/01/20 00:06:53;;;;;;;32.30;16.40;;;;;;;-0.37;100.00;100910.94;5023552;28;20242;-73
2023/01/20 00:09:19;;;;;;;31.17;15.90;;;;;;;-0.31;100.00;100915.50;5020650;28;20718;-73
2023/01/20 00:11:45;;;;;;;35.30;17.53;;;;;;;-0.27;100.00;100908.22;5027066;28;20235;-74
2023/01/20 00:14:11;;;;;;;38.60;17.17;;;;;;;-0.27;100.00;100920.81;5010439;28;20210;-73
2023/01/20 00:16:37;;;;;;;33.27;15.83;;;;;;;-0.31;100.00;100918.88;5028704;28;20310;-73
2023/01/20 00:19:03;;;;;;;30.83;15.47;;;;;;;-0.38;100.00;100924.31;5018850;28;20779;-73
2023/01/20 00:21:28;;;;;;;30.77;15.30;;;;;;;-0.44;100.00;100930.59;5026789;28;20194;-73
2023/01/20 00:23:54;;;;;;;31.10;16.17;;;;;;;-0.51;100.00;100928.44;5029505;28;20230;-73
2023/01/20 00:26:22;;;;;;;26.07;14.57;;;;;;;-0.53;100.00;100932.50;5027007;28;20218;-73
2023/01/20 00:28:48;;;;;;;32.93;16.43;;;;;;;-0.57;100.00;100933.97;5026277;28;20199;-73
2023/01/20 00:31:14;;;;;;;35.03;17.33;;;;;;;-0.53;100.00;100942.56;5015094;28;20273;-74
2023/01/20 00:33:40;;;;;;;30.33;15.33;;;;;;;-0.54;100.00;100944.19;5024571;28;20250;-72
2023/01/20 00:36:06;;;;;;;35.33;15.73;;;;;;;-0.48;100.00;100947.13;5027251;28;20216;-73
2023/01/20 00:38:32;;;;;;;33.83;15.97;;;;;;;-0.44;100.00;100954.09;5020702;28;20191;-73
2023/01/20 00:40:57;;;;;;;36.23;17.33;;;;;;;-0.46;100.00;100949.75;5019855;28;20217;-73
2023/01/20 00:43:23;;;;;;;36.37;18.30;;;;;;;-0.46;100.00;100954.78;5025141;28;20288;-73
2023/01/20 00:45:48;;;;;;;34.43;18.07;;;;;;;-0.50;100.00;100952.81;5021183;28;20224;-73
2023/01/20 00:48:13;;;;;;;34.47;18.10;;;;;;;-0.53;100.00;100956.03;5031646;28;20201;-73
2023/01/20 00:50:39;;;;;;;36.63;17.27;;;;;;;-0.54;100.00;100955.91;5025763;28;20194;-73
2023/01/20 00:53:04;;;;;;;35.77;19.03;;;;;;;-0.51;100.00;100956.09;5020635;28;20316;-73
2023/01/20 00:55:30;;;;;;;41.60;18.87;;;;;;;-0.50;100.00;100968.75;5028588;28;20226;-74
2023/01/20 00:57:55;;;;;;;40.17;19.67;;;;;;;-0.50;100.00;100971.28;5026187;28;20202;-73
2023/01/20 01:00:20;;;;;;;39.53;19.37;;;;;;;-0.53;100.00;100967.72;5026097;28;20191;-73
2023/01/20 01:02:46;;;;;;;38.03;19.40;;;;;;;-0.53;100.00;100970.22;5029906;28;20662;-73
2023/01/20 01:05:11;;;;;;;42.87;21.13;;;;;;;-0.53;100.00;100968.59;5030289;28;20183;-73
2023/01/20 01:07:37;;;;;;;45.20;22.37;;;;;;;-0.47;100.00;100980.66;5026910;28;20220;-73
2023/01/20 01:10:03;;;;;;;48.50;22.20;;;;;;;-0.45;100.00;100982.50;5009949;28;20206;-73
2023/01/20 01:12:29;;;;;;;45.30;23.73;;;;;;;-0.49;100.00;100987.25;5006262;28;20219;-73
2023/01/20 01:14:54;;;;;;;58.13;23.93;;;;;;;-0.52;100.00;101004.63;5025464;28;20201;-73
2023/01/20 01:17:22;;;;;;;50.50;23.27;;;;;;;-0.50;100.00;100998.09;5029188;28;20190;-73
2023/01/20 01:19:48;;;;;;;46.57;25.00;;;;;;;-0.53;100.00;101001.28;5027065;28;20194;-73
2023/01/20 01:22:14;;;;;;;51.37;24.10;;;;;;;-0.55;100.00;101002.78;5030377;28;20221;-73
2023/01/20 01:24:42;;;;;;;55.87;25.40;;;;;;;-0.55;100.00;101005.31;5025695;28;20198;-73
2023/01/20 01:27:07;;;;;;;51.50;25.87;;;;;;;-0.56;100.00;101007.72;5007555;28;20696;-73
2023/01/20 01:29:33;;;;;;;48.37;25.10;;;;;;;-0.57;100.00;101005.97;5022885;28;20285;-73
2023/01/20 01:31:58;;;;;;;50.77;25.03;;;;;;;-0.58;100.00;101010.16;5005724;28;20210;-73
2023/01/20 01:34:24;;;;;;;47.10;24.93;;;;;;;-0.60;100.00;101011.69;5022930;28;20183;-74
2023/01/20 01:36:49;;;;;;;53.67;25.43;;;;;;;-0.60;100.00;101008.28;5027918;28;21160;-73
2023/01/20 01:39:14;;;;;;;51.17;26.50;;;;;;;-0.63;100.00;101003.94;5004165;28;20221;-74
2023/01/20 01:41:40;;;;;;;54.20;26.63;;;;;;;-0.62;100.00;101007.31;5019993;28;20286;-73
2023/01/20 01:44:11;;;;;;;51.60;28.20;;;;;;;-0.61;100.00;101014.97;5026740;28;20210;-74
2023/01/20 01:46:37;;;;;;;55.57;28.27;;;;;;;-0.63;100.00;101019.00;5011591;28;20230;-73
2023/01/20 01:49:08;;;;;;;54.00;27.73;;;;;;;-0.61;100.00;101024.16;5027771;28;20205;-74
2023/01/20 01:51:41;;;;;;;55.60;27.73;;;;;;;-0.63;100.00;101026.56;5006236;28;20203;-73
2023/01/20 01:54:12;;;;;;;62.00;29.63;;;;;;;-0.61;100.00;101027.53;5010297;28;20312;-73
2023/01/20 01:56:39;;;;;;;69.47;31.03;;;;;;;-0.61;100.00;101037.59;5023982;28;20240;-73
2023/01/20 01:59:04;;;;;;;62.00;30.87;;;;;;;-0.63;100.00;101036.59;5028053;28;20221;-74
2023/01/20 02:01:37;;;;;;;63.83;30.67;;;;;;;-0.64;100.00;101036.53;5026652;28;20198;-74
2023/01/20 02:04:11;;;;;;;66.53;31.67;;;;;;;-0.61;100.00;101041.75;5024660;28;20229;-73
2023/01/20 02:06:44;;;;;;;68.10;32.73;;;;;;;-0.54;100.00;101039.72;5003857;28;20218;-73
2023/01/20 02:09:11;;;;;;;73.17;34.43;;;;;;;-0.51;100.00;101036.53;5029153;28;20233;-73
2023/01/20 02:11:58;;;;;;;73.40;35.10;;;;;;;-0.45;100.00;101047.03;5010632;28;20550;-74
2023/01/20 02:14:33;;;;;;;73.33;36.17;;;;;;;-0.45;100.00;101047.88;5027430;28;20655;-73
2023/01/20 02:17:17;;;;;;;70.00;35.23;;;;;;;-0.43;100.00;101050.50;5028392;28;20186;-73
2023/01/20 02:20:04;;;;;;;67.33;35.47;;;;;;;-0.41;100.00;101059.03;5019309;28;20561;-73
2023/01/20 02:22:52;;;;;;;72.87;36.43;;;;;;;-0.44;100.00;101057.19;5020232;28;20245;-73
2023/01/20 02:25:41;;;;;;;76.93;36.40;;;;;;;-0.45;100.00;101060.44;5014155;28;20191;-73
2023/01/20 02:28:15;;;;;;;73.40;36.50;;;;;;;-0.42;100.00;101062.28;5024650;28;20195;-72
2023/01/20 02:31:06;;;;;;;78.07;38.10;;;;;;;-0.43;100.00;101065.56;5028550;28;20225;-73
2023/01/20 02:33:51;;;;;;;73.57;36.17;;;;;;;-0.39;100.00;101059.97;5023612;28;20416;-73
2023/01/20 02:36:58;;;;;;;78.37;39.10;;;;;;;-0.40;100.00;101066.66;4978946;28;20213;-73
2023/01/20 02:39:34;;;;;;;84.20;38.37;;;;;;;-0.33;100.00;101072.94;5029147;28;20242;-73
2023/01/20 02:42:08;;;;;;;78.13;37.03;;;;;;;-0.32;100.00;101064.66;5023669;28;20241;-72
2023/01/20 02:44:36;;;;;;;77.80;37.90;;;;;;;-0.28;100.00;101069.09;5023284;28;20194;-72
2023/01/20 02:47:11;;;;;;;73.23;37.40;;;;;;;-0.25;100.00;101076.84;5006950;28;20248;-72
2023/01/20 02:49:54;;;;;;;78.77;37.20;;;;;;;-0.21;100.00;101069.63;5020415;28;20788;-72
2023/01/20 02:52:26;;;;;;;78.83;40.20;;;;;;;-0.15;100.00;101077.53;5004940;28;20226;-73
2023/01/20 02:54:55;;;;;;;84.97;39.00;;;;;;;-0.11;100.00;101076.09;5024657;28;20742;-72
2023/01/20 02:57:27;;;;;;;78.53;38.40;;;;;;;-0.09;100.00;101085.47;5025742;28;20210;-72
2023/01/20 02:59:58;;;;;;;80.17;39.53;;;;;;;-0.01;100.00;101070.88;5012116;28;20198;-72
2023/01/20 03:02:26;;;;;;;83.07;40.30;;;;;;;0.03;100.00;101077.84;5018325;28;20219;-72
2023/01/20 03:05:01;;;;;;;79.70;39.17;;;;;;;0.06;100.00;101078.06;5021454;28;20226;-72
2023/01/20 03:07:30;;;;;;;80.37;38.53;;;;;;;0.08;100.00;101084.94;5024186;28;20244;-72
2023/01/20 03:10:00;;;;;;;75.47;38.73;;;;;;;0.08;100.00;101078.16;5020522;28;20220;-72
2023/01/20 03:13:01;;;;;;;73.30;37.17;;;;;;;0.13;100.00;101089.41;4999740;28;20237;-72
2023/01/20 03:15:37;;;;;;;70.90;35.30;;;;;;;0.17;100.00;101091.34;5024416;28;20207;-72
2023/01/20 03:18:03;;;;;;;76.53;36.87;;;;;;;0.13;100.00;101086.88;5024877;28;20225;-72
2023/01/20 03:20:29;;;;;;;75.20;35.73;;;;;;;0.18;100.00;101096.44;5020045;28;20341;-72
2023/01/20 03:22:55;;;;;;;70.17;34.80;;;;;;;0.18;100.00;101101.47;5022425;28;20607;-72
2023/01/20 03:25:21;;;;;;;74.70;34.63;;;;;;;0.16;100.00;101105.56;5027484;28;20198;-72
2023/01/20 03:27:47;;;;;;;71.97;35.30;;;;;;;0.17;100.00;101108.97;5018756;28;20710;-72
2023/01/20 03:30:14;;;;;;;75.43;37.20;;;;;;;0.22;100.00;101105.94;5008847;28;20210;-71
2023/01/20 03:32:46;;;;;;;79.47;36.53;;;;;;;0.24;100.00;101114.47;5017045;28;20226;-71
2023/01/20 03:35:14;;;;;;;73.17;34.93;;;;;;;0.27;100.00;101117.16;5024732;28;20827;-72
2023/01/20 03:37:41;;;;;;;75.00;35.93;;;;;;;0.23;100.00;101112.72;5023954;28;20195;-71
2023/01/20 03:40:10;;;;;;;68.70;35.50;;;;;;;0.22;100.00;101120.19;5027057;28;20568;-72
2023/01/20 03:43:26;;;;;;;75.63;35.63;;;;;;;0.22;100.00;101136.13;5022099;28;20234;-72
2023/01/20 03:46:07;;;;;;;66.90;33.03;;;;;;;0.21;100.00;101131.88;5000051;28;20329;-72
2023/01/20 03:49:08;;;;;;;73.43;34.77;;;;;;;0.21;100.00;101144.47;5006117;28;20253;-71
2023/01/20 03:52:02;;;;;;;68.77;34.03;;;;;;;0.19;100.00;101139.34;4972498;28;20218;-72
2023/01/20 03:54:42;;;;;;;74.37;33.40;;;;;;;0.18;100.00;101136.72;5025669;28;20207;-72
2023/01/20 03:57:15;;;;;;;62.80;31.37;;;;;;;0.15;100.00;101139.91;5026856;28;20281;-72
2023/01/20 03:59:45;;;;;;;67.47;32.87;;;;;;;0.14;100.00;101140.69;5030210;28;20206;-72
2023/01/20 04:02:11;;;;;;;69.37;33.17;;;;;;;0.12;100.00;101141.38;5028526;28;20242;-72
2023/01/20 04:04:39;;;;;;;68.53;34.37;;;;;;;0.14;100.00;101147.38;5018258;28;20281;-72
2023/01/20 04:07:11;;;;;;;67.80;34.13;;;;;;;0.11;100.00;101147.19;5027671;28;20223;-72
2023/01/20 04:09:43;;;;;;;67.73;33.83;;;;;;;0.07;100.00;101160.31;5030187;28;20206;-72
2023/01/20 04:12:09;;;;;;;65.70;31.87;;;;;;;0.08;100.00;101158.69;5026132;28;20197;-72
2023/01/20 04:14:35;;;;;;;71.57;33.47;;;;;;;0.10;100.00;101161.38;5027846;28;20640;-74
2023/01/20 04:17:02;;;;;;;66.90;31.87;;;;;;;0.15;100.00;101166.75;5021336;28;20640;-71
2023/01/20 04:19:28;;;;;;;62.77;32.80;;;;;;;0.17;100.00;101166.06;5025014;28;20213;-73
2023/01/20 04:22:08;;;;;;;66.27;32.80;;;;;;;0.21;100.00;101169.66;5027456;28;20187;-74
2023/01/20 04:24:41;;;;;;;62.13;32.23;;;;;;;0.20;100.00;101166.25;5025850;28;20205;-71
2023/01/20 04:27:06;;;;;;;59.30;31.60;;;;;;;0.23;100.00;101170.59;5024301;28;20219;-74
2023/01/20 04:29:31;;;;;;;64.30;31.73;;;;;;;0.24;100.00;101174.91;5023403;28;20202;-71
2023/01/20 04:31:59;;;;;;;70.70;33.17;;;;;;;0.23;100.00;101166.47;5020530;28;20197;-71
2023/01/20 04:34:24;;;;;;;65.53;32.50;;;;;;;0.24;100.00;101173.22;5026735;28;20281;-71
2023/01/20 04:36:49;;;;;;;65.80;31.57;;;;;;;0.26;100.00;101180.03;5029187;28;20739;-72
2023/01/20 04:39:15;;;;;;;63.47;31.80;;;;;;;0.22;100.00;101177.31;5011417;28;20194;-72
2023/01/20 04:41:40;;;;;;;61.73;29.53;;;;;;;0.21;100.00;101182.22;5029976;28;20194;-72
2023/01/20 04:44:06;;;;;;;61.33;29.67;;;;;;;0.22;100.00;101185.63;5030831;28;20305;-72
2023/01/20 04:46:31;;;;;;;62.73;29.43;;;;;;;0.22;100.00;101181.44;5030079;28;20238;-72
2023/01/20 04:48:57;;;;;;;57.53;30.10;;;;;;;0.23;100.00;101196.66;5020195;28;20656;-72
2023/01/20 04:51:22;;;;;;;61.17;28.47;;;;;;;0.25;100.00;101194.25;5026397;28;20563;-73
2023/01/20 04:53:48;;;;;;;60.47;28.90;;;;;;;0.28;100.00;101204.53;5025486;28;20925;-72
2023/01/20 04:56:14;;;;;;;66.43;29.43;;;;;;;0.31;100.00;101212.25;5029009;28;20205;-72
2023/01/20 04:58:41;;;;;;;62.40;29.23;;;;;;;0.33;100.00;101211.59;5027744;28;20225;-72
2023/01/20 05:01:07;;;;;;;60.27;28.77;;;;;;;0.34;100.00;101215.84;5020871;28;20827;-72
2023/01/20 05:03:33;;;;;;;56.47;29.57;;;;;;;0.36;100.00;101218.47;5023329;28;20264;-72
2023/01/20 05:05:59;;;;;;;58.47;28.57;;;;;;;0.37;100.00;101219.34;5023808;28;20222;-74
2023/01/20 05:08:24;;;;;;;64.90;28.33;;;;;;;0.38;100.00;101226.13;5008430;28;20190;-72
2023/01/20 05:10:50;;;;;;;58.10;27.00;;;;;;;0.38;100.00;101234.56;5009130;28;20233;-74
2023/01/20 05:13:15;;;;;;;55.93;27.07;;;;;;;0.39;100.00;101231.28;5008499;28;20222;-74
2023/01/20 05:15:42;;;;;;;54.27;27.20;;;;;;;0.41;100.00;101232.22;5005710;28;20202;-73
2023/01/20 05:18:08;;;;;;;56.60;28.10;;;;;;;0.40;100.00;101235.53;5026147;28;20191;-73
2023/01/20 05:20:33;;;;;;;54.57;26.27;;;;;;;0.41;100.00;101246.47;5027864;28;20201;-73
2023/01/20 05:22:58;;;;;;;57.87;27.87;;;;;;;0.42;100.00;101244.06;5025236;28;20214;-72
2023/01/20 05:25:24;;;;;;;52.67;25.07;;;;;;;0.41;100.00;101254.88;5028036;28;20205;-73
2023/01/20 05:27:49;;;;;;;53.77;27.27;;;;;;;0.45;100.00;101250.94;5010258;28;20214;-73
2023/01/20 05:30:15;;;;;;;50.73;24.97;;;;;;;0.44;100.00;101260.13;5011128;28;20639;-73
2023/01/20 05:32:40;;;;;;;54.10;25.73;;;;;;;0.44;100.00;101262.66;5021958;28;20568;-74
2023/01/20 05:35:07;;;;;;;54.27;26.50;;;;;;;0.45;100.00;101266.06;5021365;28;20225;-73
2023/01/20 05:37:32;;;;;;;55.23;26.93;;;;;;;0.44;100.00;101270.22;5028646;28;20197;-73
2023/01/20 05:39:58;;;;;;;55.47;26.00;;;;;;;0.45;100.00;101274.47;5024503;28;20199;-74
2023/01/20 05:42:23;;;;;;;51.00;26.53;;;;;;;0.45;100.00;101276.13;5025320;28;20225;-74
2023/01/20 05:44:49;;;;;;;54.80;25.37;;;;;;;0.45;100.00;101274.47;5022875;28;20195;-74
2023/01/20 05:47:14;;;;;;;55.70;24.90;;;;;;;0.43;100.00;101276.03;5021178;28;20300;-73
2023/01/20 05:49:40;;;;;;;54.33;24.67;;;;;;;0.43;100.00;101281.91;5025905;28;20233;-73
2023/01/20 05:52:05;;;;;;;52.33;24.13;;;;;;;0.43;100.00;101281.91;5029358;28;20198;-74
2023/01/20 05:54:30;;;;;;;48.50;25.47;;;;;;;0.43;100.00;101279.41;5008940;28;20323;-73
2023/01/20 05:56:56;;;;;;;49.97;23.87;;;;;;;0.45;100.00;101286.22;5022764;28;20831;-72
2023/01/20 05:59:22;;;;;;;47.93;23.47;;;;;;;0.45;100.00;101289.56;5019482;28;20754;-74
2023/01/20 06:01:48;;;;;;;50.23;24.87;;;;;;;0.45;100.00;101292.09;5019909;28;20199;-73
2023/01/20 06:04:13;;;;;;;50.10;24.43;;;;;;;0.45;100.00;101292.09;5021917;28;20630;-73
2023/01/20 06:06:39;;;;;;;49.23;23.17;;;;;;;0.45;100.00;101297.13;5019860;28;20236;-73
2023/01/20 06:09:05;;;;;;;46.70;22.63;;;;;;;0.44;100.00;101300.44;5019209;28;20222;-74
2023/01/20 06:11:31;;;;;;;47.63;22.13;;;;;;;0.46;100.00;101303.06;5023038;28;20225;-73
2023/01/20 06:13:56;;;;;;;50.57;23.37;;;;;;;0.46;100.00;101303.91;5022672;28;20219;-73
2023/01/20 06:16:22;;;;;;;48.27;22.57;;;;;;;0.49;100.00;101305.78;5022635;28;20893;-72
2023/01/20 06:18:47;;;;;;;49.70;23.13;;;;;;;0.49;100.00;101305.78;5026781;28;20198;-72
2023/01/20 06:21:13;;;;;;;49.00;22.53;;;;;;;0.52;100.00;101306.84;5025195;28;20248;-73
2023/01/20 06:23:38;;;;;;;49.67;21.97;;;;;;;0.53;100.00;101313.63;5024143;28;20210;-73
2023/01/20 06:26:06;;;;;;;48.40;24.43;;;;;;;0.54;100.00;101317.03;5027900;28;20288;-73
2023/01/20 06:28:32;;;;;;;45.87;21.57;;;;;;;0.54;100.00;101324.59;5027626;28;20233;-73
2023/01/20 06:30:59;;;;;;;52.83;24.87;;;;;;;0.53;100.00;101326.22;5022860;28;20211;-73
2023/01/20 06:33:25;;;;;;;51.57;23.83;;;;;;;0.53;100.00;101328.75;5020467;28;20218;-73
2023/01/20 06:35:54;;;;;;;47.20;22.93;;;;;;;0.52;100.00;101329.53;5021995;28;20206;-73
2023/01/20 06:38:24;;;;;;;49.63;23.10;;;;;;;0.54;100.00;101340.56;5005801;28;20198;-72
2023/01/20 06:40:55;;;;;;;48.60;23.70;;;;;;;0.56;100.00;101354.13;5021149;28;20198;-73
2023/01/20 06:43:21;;;;;;;50.63;23.43;;;;;;;0.56;100.00;101355.78;5018425;28;20249;-73
2023/01/20 06:45:46;;;;;;;48.87;23.20;;;;;;;0.57;100.00;101359.25;5002376;28;20202;-72
2023/01/20 06:48:12;;;;;;;52.43;23.10;;;;;;;0.59;100.00;101366.06;5006694;28;20222;-72
2023/01/20 06:50:37;;;;;;;50.57;23.03;;;;;;;0.57;100.00;101363.44;5020420;28;20202;-73
2023/01/20 06:53:03;;;;;;;47.23;22.87;;;;;;;0.57;100.00;101371.00;5014360;28;20214;-73
2023/01/20 06:55:28;;;;;;;49.87;23.07;;;;;;;0.56;100.00;101379.34;5024484;28;20290;-73
2023/01/20 06:57:53;;;;;;;48.47;21.67;;;;;;;0.55;100.00;101386.78;5002163;28;20221;-73
2023/01/20 07:00:19;;;;;;;47.53;22.90;;;;;;;0.55;100.00;101391.81;5025835;28;20309;-74
2023/01/20 07:02:47;;;;;;;49.53;23.10;;;;;;;0.56;100.00;101399.47;5005050;28;20258;-73
2023/01/20 07:05:12;;;;;;;47.27;21.43;;;;;;;0.56;100.00;101404.53;5017326;28;20586;-73
2023/01/20 07:07:38;;;;;;;48.47;22.40;;;;;;;0.61;100.00;101413.25;5020968;28;20214;-74
2023/01/20 07:10:04;;;;;;;51.87;22.53;;;;;;;0.60;100.00;101416.56;5026469;28;20195;-73
2023/01/20 07:12:29;;;;;;;51.93;22.47;;;;;;;0.62;100.00;101429.22;5025454;28;20221;-73
2023/01/20 07:14:55;;;;;;;47.60;23.00;;;;;;;0.60;100.00;101435.81;5009292;28;20839;-73
2023/01/20 07:17:20;;;;;;;48.30;22.53;;;;;;;0.61;100.00;101437.56;5009818;28;20194;-74
2023/01/20 07:19:45;;;;;;;48.77;23.00;;;;;;;0.56;100.00;101439.78;5027843;28;20206;-74
2023/01/20 07:22:11;;;;;;;52.47;23.77;;;;;;;0.56;100.00;101444.81;5022376;28;20238;-73
2023/01/20 07:24:36;;;;;;;46.90;22.63;;;;;;;0.55;100.00;101449.75;5016028;28;20217;-72
2023/01/20 07:27:02;;;;;;;52.93;24.10;;;;;;;0.54;100.00;101453.91;5020215;28;20207;-73
2023/01/20 07:29:27;;;;;;;49.00;22.63;;;;;;;0.54;100.00;101451.38;5025064;28;20731;-73
2023/01/20 07:31:52;;;;;;;50.37;24.03;;;;;;;0.55;100.00;101459.81;5023394;28;20191;-73
2023/01/20 07:34:18;;;;;;;58.27;24.33;;;;;;;0.54;100.00;101460.59;5025009;28;20240;-73
2023/01/20 07:36:43;;;;;;;47.83;22.57;;;;;;;0.52;100.00;101468.91;5023158;28;20221;-73
2023/01/20 07:39:10;;;;;;;51.73;22.77;;;;;;;0.53;100.00;101462.22;5022999;28;20560;-72
2023/01/20 07:41:35;;;;;;;53.47;22.33;;;;;;;0.55;100.00;101472.41;5024836;28;20198;-73
2023/01/20 07:44:01;;;;;;;51.27;22.40;;;;;;;0.55;100.00;101472.41;5012339;28;20227;-73
2023/01/20 07:46:26;;;;;;;48.83;21.73;;;;;;;0.51;100.00;101473.84;5020396;28;20257;-73
2023/01/20 07:48:52;;;;;;;52.83;23.10;;;;;;;0.54;100.00;101483.28;5023463;28;20198;-73
2023/01/20 07:51:17;;;;;;;48.70;22.53;;;;;;;0.52;100.00;101478.97;5023092;28;20240;-73
2023/01/20 07:53:48;;;;;;;50.53;22.67;;;;;;;0.54;100.00;101491.69;5028863;28;20217;-73
2023/01/20 07:56:19;;;;;;;46.70;21.30;;;;;;;0.54;100.00;101481.59;5026612;28;20277;-73
2023/01/20 07:58:44;;;;;;;46.03;20.30;;;;;;;0.54;100.00;101500.91;5009089;28;20277;-72
2023/01/20 08:01:13;;;;;;;48.20;22.50;;;;;;;0.54;100.00;101491.69;5025645;28;20682;-73
2023/01/20 08:03:39;;;;;;;53.13;22.10;;;;;;;0.56;100.00;101501.88;5012849;28;20218;-73
2023/01/20 08:06:07;;;;;;;49.97;21.90;;;;;;;0.57;100.00;101506.13;5030594;28;20774;-72
2023/01/20 08:08:33;;;;;;;53.00;22.07;;;;;;;0.59;100.00;101507.97;5029551;28;20613;-72
2023/01/20 08:11:00;;;;;;;45.80;22.20;;;;;;;0.57;100.00;101507.88;5028182;28;20198;-73
2023/01/20 08:13:29;;;;;;;47.73;21.47;;;;;;;0.59;100.00;101515.53;5029032;28;20271;-73
2023/01/20 08:15:54;;;;;;;49.10;21.10;;;;;;;0.63;100.00;101529.25;5027635;28;20285;-73
2023/01/20 08:18:20;;;;;;;44.73;20.27;;;;;;;0.63;100.00;101531.75;5022646;28;20198;-74
2023/01/20 08:20:45;;;;;;;46.83;20.80;;;;;;;0.64;100.00;101529.31;5005770;28;20194;-73
2023/01/20 08:23:11;;;;;;;51.70;20.70;;;;;;;0.65;100.00;101540.28;5022372;28;20218;-73
2023/01/20 08:25:36;;;;;;;47.20;22.33;;;;;;;0.62;100.00;101540.94;5022820;28;20294;-73
2023/01/20 08:28:02;;;;;;;45.03;21.30;;;;;;;0.66;100.00;101542.03;5022642;28;20218;-72
2023/01/20 08:30:27;;;;;;;49.77;21.70;;;;;;;0.68;100.00;101545.56;5026394;28;20221;-73
2023/01/20 08:32:53;;;;;;;47.40;21.27;;;;;;;0.70;100.00;101546.50;5023220;28;20309;-73
2023/01/20 08:35:18;;;;;;;45.67;20.50;;;;;;;0.68;100.00;101553.97;5009025;28;20206;-73
2023/01/20 08:37:44;;;;;;;44.50;20.63;;;;;;;0.70;100.00;101556.59;5006801;28;20669;-72
2023/01/20 08:40:10;;;;;;;42.00;20.10;;;;;;;0.70;100.00;101554.06;4993651;28;20197;-72
2023/01/20 08:42:36;;;;;;;43.17;19.50;;;;;;;0.68;100.00;101551.44;5029005;28;20218;-72
2023/01/20 08:45:05;;;;;;;47.60;21.63;;;;;;;0.73;100.00;101556.81;5025110;28;20198;-72
2023/01/20 08:47:30;;;;;;;44.93;21.93;;;;;;;0.74;100.00;101561.06;5026849;28;20309;-72
2023/01/20 08:49:56;;;;;;;48.17;21.47;;;;;;;0.74;100.00;101559.44;5026996;28;20297;-72
2023/01/20 08:52:21;;;;;;;45.63;21.83;;;;;;;0.75;100.00;101567.88;5025148;28;20288;-72
2023/01/20 08:54:50;;;;;;;48.23;20.67;;;;;;;0.76;100.00;101574.66;5028958;28;20205;-72
2023/01/20 08:57:16;;;;;;;45.47;20.73;;;;;;;0.80;100.00;101572.47;5012287;28;20282;-72
2023/01/20 08:59:41;;;;;;;43.27;20.40;;;;;;;0.82;100.00;101580.13;5026706;28;20751;-72
2023/01/20 09:02:08;;;;;;;40.30;19.73;;;;;;;0.83;100.00;101589.44;5025447;28;20195;-72
2023/01/20 09:04:36;;;;;;;40.53;18.70;;;;;;;0.84;100.00;101586.13;5020500;28;20183;-72
2023/01/20 09:07:02;;;;;;;42.33;19.40;;;;;;;0.86;100.00;101589.66;5020423;28;20229;-71
2023/01/20 09:09:27;;;;;;;45.00;20.47;;;;;;;0.85;100.00;101596.34;5022511;28;20198;-73
2023/01/20 09:11:53;;;;;;;43.00;21.43;;;;;;;0.84;100.00;101599.63;5020171;28;20221;-73
2023/01/20 09:14:21;;;;;;;45.67;19.73;;;;;;;0.86;100.00;101602.25;5001700;28;20567;-73
2023/01/20 09:16:46;;;;;;;39.70;18.97;;;;;;;0.86;100.00;101603.13;5024578;28;20281;-73
2023/01/20 09:19:11;;;;;;;42.67;19.93;;;;;;;0.88;100.00;101599.06;5026681;28;20285;-72
2023/01/20 09:21:37;;;;;;;46.73;20.03;;;;;;;0.86;100.00;101605.63;5025313;28;20202;-72
2023/01/20 09:24:02;;;;;;;43.57;19.47;;;;;;;0.87;100.00;101601.50;5023222;28;20269;-71
2023/01/20 09:26:37;;;;;;;39.77;18.83;;;;;;;0.91;100.00;101606.81;5022700;28;20218;-73
2023/01/20 09:29:07;;;;;;;42.10;20.70;;;;;;;0.92;100.00;101608.56;5024178;28;20226;-73
2023/01/20 09:31:34;;;;;;;40.50;20.30;;;;;;;0.94;100.00;101614.63;5026985;28;20202;-73
2023/01/20 09:34:00;;;;;;;39.10;20.13;;;;;;;0.96;100.00;101617.25;5022788;28;20362;-73
2023/01/20 09:36:28;;;;;;;41.03;19.30;;;;;;;0.98;100.00;101616.59;5024240;28;20186;-73
2023/01/20 09:44:48;;;;;;;43.17;21.10;;;;;;;0.97;100.00;101624.91;5027655;28;20214;-73
2023/01/20 09:47:20;;;;;;;41.83;22.27;;;;;;;1.03;100.00;101632.91;5026957;28;20215;-72
2023/01/20 09:53:04;;;;;;;42.80;22.10;;;;;;;1.02;100.00;101630.25;5025770;28;20344;-73
2023/01/20 09:55:50;;;;;;;42.40;20.60;;;;;;;1.03;100.00;101637.94;5024451;28;20194;-72
2023/01/20 09:58:38;;;;;;;38.60;20.20;;;;;;;1.07;100.00;101639.03;5022430;28;20209;-72
2023/01/20 10:01:36;;;;;;;37.30;20.97;;;;;;;1.10;100.00;101641.75;5018385;28;20193;-73
2023/01/20 10:04:20;;;;;;;36.03;19.63;;;;;;;1.11;100.00;101651.06;5018090;28;20218;-73
2023/01/20 10:06:59;;;;;;;37.30;19.03;;;;;;;1.11;100.00;101646.91;5023900;28;20225;-73
2023/01/20 10:09:40;;;;;;;37.20;18.13;;;;;;;1.16;100.00;101647.22;5004942;28;20217;-72
2023/01/20 10:12:15;;;;;;;37.53;18.07;;;;;;;1.23;100.00;101654.44;5019616;28;20190;-72
2023/01/20 10:15:08;;;;;;;38.13;18.77;;;;;;;1.42;100.00;101644.84;5021938;28;20263;-73
2023/01/20 10:17:47;;;;;;;34.70;17.80;;;;;;;1.46;100.00;101649.34;5021564;28;20194;-73
2023/01/20 10:20:32;;;;;;;32.57;17.17;;;;;;;1.56;100.00;101656.75;5024431;28;20198;-73
2023/01/20 10:23:08;;;;;;;29.57;15.70;;;;;;;1.50;100.00;101651.25;5021784;28;20232;-74
2023/01/20 10:25:43;;;;;;;30.30;16.47;;;;;;;1.51;100.00;101658.94;5022669;28;20202;-74
2023/01/20 10:28:12;;;;;;;35.47;17.27;;;;;;;1.53;100.00;101661.56;5023941;28;20337;-74
2023/01/20 10:30:38;;;;;;;33.53;16.87;;;;;;;1.55;100.00;101667.59;5023438;28;20240;-74
2023/01/20 10:33:20;;;;;;;34.00;17.40;;;;;;;1.69;100.00;101665.22;5025426;28;20215;-73
2023/01/20 10:35:50;;;;;;;35.23;17.13;;;;;;;2.04;100.00;101660.91;5022378;28;20228;-74
2023/01/20 10:38:44;;;;;;;29.63;16.53;;;;;;;2.07;100.00;101663.59;4987204;28;20284;-72
2023/01/20 10:41:21;;;;;;;31.10;17.43;;;;;;;2.24;100.00;101660.53;4990280;28;20198;-73
2023/01/20 10:43:46;;;;;;;29.47;16.60;;;;;;;2.42;100.00;101664.25;5025988;28;20225;-74
2023/01/20 10:46:30;;;;;;;28.50;15.63;;;;;;;2.37;100.00;101673.19;5020446;28;20268;-73
2023/01/20 10:49:26;;;;;;;26.63;14.73;;;;;;;2.42;100.00;101663.38;5015455;28;20555;-72
2023/01/20 10:51:54;;;;;;;30.53;15.40;;;;;;;2.48;100.00;101668.84;4999634;28;20682;-72
2023/01/20 10:54:31;;;;;;;30.93;15.30;;;;;;;2.38;100.00;101664.84;5018678;28;20203;-73
2023/01/20 10:56:58;;;;;;;26.13;14.67;;;;;;;2.73;100.00;101664.56;5020638;28;20318;-73
2023/01/20 10:59:44;;;;;;;25.50;14.37;;;;;;;2.90;100.00;101659.78;5019912;28;20264;-72
2023/01/20 11:02:40;;;;;;;27.50;15.27;;;;;;;3.09;100.00;101664.34;4987713;28;20267;-72
2023/01/20 11:05:26;;;;;;;27.07;14.30;;;;;;;3.46;100.00;101663.28;5004321;28;20402;-72
2023/01/20 11:07:53;;;;;;;23.50;14.60;;;;;;;3.63;100.00;101662.63;5017954;28;20254;-72
2023/01/20 11:10:23;;;;;;;23.83;12.77;;;;;;;4.12;100.00;101663.06;5025756;28;20257;-73
2023/01/20 11:12:52;;;;;;;22.57;13.33;;;;;;;4.38;100.00;101667.09;5023095;28;20214;-72
2023/01/20 11:15:25;;;;;;;21.73;12.67;;;;;;;4.22;100.00;101665.34;5020049;28;20193;-73
2023/01/20 11:18:13;;;;;;;26.30;14.23;;;;;;;4.35;100.00;101664.38;5024821;28;20198;-73
2023/01/20 11:21:10;;;;;;;25.33;13.73;;;;;;;4.15;100.00;101669.97;5017625;28;20253;-73
2023/01/20 11:23:51;;;;;;;23.67;13.57;;;;;;;4.25;100.00;101669.69;5014209;28;20310;-73
2023/01/20 11:26:31;;;;;;;20.70;12.53;;;;;;;4.68;100.00;101676.41;5022997;28;20776;-72
2023/01/20 11:28:58;;;;;;;23.40;13.83;;;;;;;4.73;100.00;101669.91;5022191;28;20578;-73